Time;durP1;ratioP1;P1;durP2;ratioP2;P2;SDS_P1;SDS_P2;PMS_P1;PMS_P2;Temp;Humidity;BMP_temperature;BMP_pressure;BME280_temperature;BME280_humidity;BME280_pressure;Samples;Min_cycle;Max_cycle;Signal;HPM_P1;HPM_P2
2021/11/26 00:01:38;;;;;;;54.15;35.05;;;;;;;3.21;84.92;95515.10;1795208;80;21336;-83
2021/11/26 00:04:05;;;;;;;54.40;33.02;;;;;;;3.22;84.87;95511.09;1795317;80;20948;-83
2021/11/26 00:06:31;;;;;;;53.15;32.85;;;;;;;3.21;84.77;95495.84;1795323;80;21019;-83
2021/11/26 00:08:58;;;;;;;49.90;30.25;;;;;;;3.16;84.68;95500.66;1781526;79;20995;-83
2021/11/26 00:11:24;;;;;;;48.90;30.77;;;;;;;3.16;84.73;95487.83;1795048;80;21015;-83
2021/11/26 00:14:13;;;;;;;46.25;28.85;;;;;;;3.19;84.63;95493.92;1795339;80;21051;-83
2021/11/26 00:16:35;;;;;;;52.35;31.85;;;;;;;3.21;84.55;95484.30;1794656;80;20975;-83
2021/11/26 00:19:03;;;;;;;51.50;31.85;;;;;;;3.20;84.58;95498.09;1794358;80;20984;-83
2021/11/26 00:21:25;;;;;;;47.58;30.72;;;;;;;3.22;84.72;95503.87;1794531;80;21042;-83
2021/11/26 00:23:51;;;;;;;49.60;31.17;;;;;;;3.23;84.62;95501.63;1795358;80;20959;-83
2021/11/26 00:26:17;;;;;;;47.25;29.42;;;;;;;3.20;84.72;95501.47;1794822;80;21003;-83
2021/11/26 00:28:43;;;;;;;47.67;28.45;;;;;;;3.20;84.66;95499.38;1795323;80;21322;-83
2021/11/26 00:31:09;;;;;;;44.23;28.50;;;;;;;3.21;84.61;95507.40;1795122;80;21369;-83
2021/11/26 00:33:34;;;;;;;49.23;28.92;;;;;;;3.24;84.62;95503.23;1766421;80;21066;-83
2021/11/26 00:36:00;;;;;;;45.92;29.32;;;;;;;3.28;84.70;95500.69;1795200;80;20944;-83
2021/11/26 00:38:26;;;;;;;46.53;28.40;;;;;;;3.17;84.58;95477.88;1741595;80;20999;-83
2021/11/26 00:40:52;;;;;;;47.20;31.17;;;;;;;3.17;84.58;95477.88;1795395;80;21369;-83
2021/11/26 00:43:17;;;;;;;46.33;28.65;;;;;;;3.17;84.55;95483.02;1795173;80;21023;-83
2021/11/26 00:45:45;;;;;;;44.27;28.65;;;;;;;3.12;84.57;95482.69;1795262;80;21027;-83
2021/11/26 00:48:11;;;;;;;43.70;26.23;;;;;;;3.10;84.62;95476.44;1795294;80;20974;-83
2021/11/26 00:50:36;;;;;;;42.60;27.35;;;;;;;3.12;84.64;95474.51;1795151;80;21030;-83
2021/11/26 00:53:04;;;;;;;42.88;28.27;;;;;;;3.13;84.58;95452.21;1795143;80;21035;-83
2021/11/26 00:55:30;;;;;;;43.63;29.15;;;;;;;3.13;84.53;95449.16;1795125;80;21064;-83
2021/11/26 00:57:55;;;;;;;43.75;27.73;;;;;;;3.10;84.52;95443.55;1795250;80;21071;-83
2021/11/26 01:00:21;;;;;;;49.63;30.43;;;;;;;3.04;84.67;95433.41;1795368;80;21318;-83
2021/11/26 01:02:47;;;;;;;47.08;31.75;;;;;;;2.98;84.73;95427.64;1795393;80;20962;-83
2021/11/26 01:05:13;;;;;;;43.17;29.10;;;;;;;2.95;84.73;95432.61;1795217;80;21007;-83
2021/11/26 01:07:39;;;;;;;45.90;26.20;;;;;;;2.96;84.77;95427.00;1794990;79;21512;-83
2021/11/26 01:10:11;;;;;;;42.10;26.68;;;;;;;2.97;84.56;95429.89;1792131;80;20940;-83
2021/11/26 01:12:37;;;;;;;;;;;;;;;2.97;84.43;95438.39;1796719;80;21014;-82
2021/11/26 01:15:04;;;;;;;43.23;26.77;;;;;;;2.93;84.50;95438.87;1762381;81;20122;-83
2021/11/26 01:17:30;;;;;;;45.75;28.42;;;;;;;2.89;84.59;95441.41;1762326;81;20943;-83
2021/11/26 01:19:56;;;;;;;44.75;26.77;;;;;;;2.85;84.75;95450.38;1762227;81;21046;-83
2021/11/26 01:22:22;;;;;;;42.33;27.15;;;;;;;2.87;84.84;95446.69;1762224;81;20951;-83
2021/11/26 01:24:48;;;;;;;42.90;26.65;;;;;;;2.88;84.75;95444.45;1762389;81;21066;-83
2021/11/26 01:27:13;;;;;;;37.98;25.20;;;;;;;2.88;84.64;95450.86;1762167;81;21392;-83
2021/11/26 01:29:40;;;;;;;39.88;26.85;;;;;;;2.89;84.72;95455.52;1761940;81;21014;-83
2021/11/26 01:32:06;;;;;;;40.20;27.15;;;;;;;2.90;84.85;95448.14;1762280;81;20939;-83
2021/11/26 01:34:32;;;;;;;42.05;26.17;;;;;;;2.93;85.00;95446.56;1762063;80;21104;-83
2021/11/26 01:36:58;;;;;;;45.35;27.35;;;;;;;2.96;85.06;95447.53;1762249;81;21045;-83
2021/11/26 01:39:25;;;;;;;40.65;24.75;;;;;;;2.96;85.09;95447.53;1762462;81;21081;-83
2021/11/26 01:41:52;;;;;;;48.87;30.00;;;;;;;2.96;85.06;95442.40;1762150;81;21070;-83
2021/11/26 01:44:18;;;;;;;44.13;27.70;;;;;;;2.98;85.07;95428.92;1762277;81;20975;-83
2021/11/26 01:46:45;;;;;;;42.53;27.75;;;;;;;3.05;85.13;95437.59;1762420;81;20971;-83
2021/11/26 01:49:12;;;;;;;48.42;30.00;;;;;;;3.13;85.14;95432.96;1762334;81;21074;-82
2021/11/26 01:51:38;;;;;;;48.33;30.82;;;;;;;3.16;85.13;95437.77;1762377;81;20966;-83
2021/11/26 01:54:05;;;;;;;46.30;29.95;;;;;;;3.19;85.12;95434.87;1762264;81;21025;-83
2021/11/26 01:56:31;;;;;;;53.02;31.70;;;;;;;3.20;85.21;95435.20;1762302;81;20997;-83
2021/11/26 01:58:57;;;;;;;53.45;32.38;;;;;;;3.25;85.24;95426.53;1762273;81;20986;-82
2021/11/26 02:01:22;;;;;;;43.70;28.57;;;;;;;3.26;85.06;95424.31;1762315;81;20970;-83
2021/11/26 02:03:48;;;;;;;43.98;28.77;;;;;;;3.34;84.95;95425.58;1762413;81;21086;-83
2021/11/26 02:06:14;;;;;;;49.00;30.35;;;;;;;3.38;84.83;95427.34;1762478;81;21462;-83
2021/11/26 02:08:40;;;;;;;47.53;29.35;;;;;;;3.42;84.95;95424.31;1762224;81;21005;-83
2021/11/26 02:11:06;;;;;;;50.43;31.70;;;;;;;3.44;84.93;95421.11;1762277;81;21018;-83
2021/11/26 02:13:32;;;;;;;51.35;32.53;;;;;;;3.41;84.86;95425.25;1762523;81;20946;-83
2021/11/26 02:16:00;;;;;;;44.90;28.25;;;;;;;3.38;84.96;95411.45;1762363;81;21467;-83
2021/11/26 02:18:26;;;;;;;45.95;29.30;;;;;;;3.36;85.03;95400.55;1759925;81;21377;-83
2021/11/26 02:20:51;;;;;;;50.58;31.77;;;;;;;3.34;85.09;95394.77;1762398;81;20954;-83
2021/11/26 02:23:17;;;;;;;50.15;31.55;;;;;;;3.35;85.03;95388.67;1762261;81;21444;-83
2021/11/26 02:25:43;;;;;;;42.08;27.67;;;;;;;3.36;84.94;95380.48;1762356;81;21303;-83
2021/11/26 02:28:10;;;;;;;50.63;32.30;;;;;;;3.36;85.45;95378.72;1762517;81;20970;-83
2021/11/26 02:30:36;;;;;;;51.50;31.97;;;;;;;3.42;85.55;95381.95;1762250;81;20982;-83
2021/11/26 02:33:13;;;;;;;58.25;38.75;;;;;;;3.44;85.50;95375.36;1762849;81;21038;-83
2021/11/26 02:35:40;;;;;;;57.88;36.25;;;;;;;3.43;85.32;95369.42;1765300;81;20994;-83
2021/11/26 02:38:08;;;;;;;52.67;33.67;;;;;;;3.43;85.15;95359.63;1765322;81;21096;-83
2021/11/26 02:40:34;;;;;;;51.42;33.23;;;;;;;3.47;85.14;95360.42;1765194;81;20964;-83
2021/11/26 02:43:00;;;;;;;56.68;35.38;;;;;;;3.50;85.05;95357.52;1754907;81;20981;-83
2021/11/26 02:45:26;;;;;;;54.55;35.95;;;;;;;3.51;84.94;95353.98;1747707;81;20946;-83
2021/11/26 02:47:53;;;;;;;58.70;36.15;;;;;;;3.53;84.98;95359.77;1739166;82;20980;-83
2021/11/26 02:50:20;;;;;;;57.25;35.17;;;;;;;3.54;85.04;95356.23;1739273;82;21409;-83
2021/11/26 02:52:46;;;;;;;53.42;33.45;;;;;;;3.54;85.19;95359.28;1760957;81;20970;-83
2021/11/26 02:55:16;;;;;;;52.43;32.93;;;;;;;3.59;85.25;95357.84;1760793;81;20965;-83
2021/11/26 02:57:42;;;;;;;54.33;36.20;;;;;;;3.63;85.07;95358.31;1760930;81;21052;-83
2021/11/26 03:00:11;;;;;;;55.48;36.08;;;;;;;3.72;84.90;95360.37;1760890;81;20957;-83
2021/11/26 03:02:36;;;;;;;54.88;33.35;;;;;;;3.71;84.67;95358.28;1760864;81;20971;-83
2021/11/26 03:05:04;;;;;;;55.63;35.15;;;;;;;3.72;84.69;95344.95;1760639;81;21052;-83
2021/11/26 03:07:30;;;;;;;57.08;35.95;;;;;;;3.75;84.77;95338.22;1760965;81;21068;-83
2021/11/26 03:09:56;;;;;;;55.67;35.13;;;;;;;3.72;84.50;95329.53;1737262;81;21069;-83
2021/11/26 03:12:21;;;;;;;55.10;33.42;;;;;;;3.74;84.49;95321.17;1760901;81;20926;-83
2021/11/26 03:14:47;;;;;;;53.92;34.15;;;;;;;3.75;84.37;95321.04;1760857;81;20984;-83
2021/11/26 03:17:13;;;;;;;56.50;33.88;;;;;;;3.77;84.46;95319.10;1761041;81;21408;-83
2021/11/26 03:19:39;;;;;;;54.85;34.40;;;;;;;3.79;84.40;95318.45;1760887;81;20997;-83
2021/11/26 03:22:05;;;;;;;55.40;34.70;;;;;;;3.71;84.16;95315.09;1760993;81;21060;-83
2021/11/26 03:24:31;;;;;;;54.73;34.40;;;;;;;3.70;84.35;95316.06;1761091;81;21451;-83
2021/11/26 03:26:57;;;;;;;59.73;35.00;;;;;;;3.69;84.43;95321.68;1752649;80;20949;-83
2021/11/26 03:29:22;;;;;;;53.35;32.58;;;;;;;3.71;84.46;95312.03;1798425;80;20977;-83
2021/11/26 03:31:48;;;;;;;51.33;31.17;;;;;;;3.73;84.34;95306.25;1798317;80;21323;-83
2021/11/26 03:34:14;;;;;;;48.15;31.00;;;;;;;3.77;84.30;95309.31;1798074;80;21021;-83
2021/11/26 03:36:40;;;;;;;47.33;29.67;;;;;;;3.80;84.31;95306.41;1798220;80;20981;-83
2021/11/26 03:39:06;;;;;;;49.13;33.02;;;;;;;3.82;84.43;95304.46;1798193;80;21024;-83
2021/11/26 03:41:31;;;;;;;54.53;33.50;;;;;;;3.83;84.51;95310.72;1798196;78;20957;-83
2021/11/26 03:43:57;;;;;;;51.25;32.80;;;;;;;3.85;84.54;95301.07;1781433;80;20949;-83
2021/11/26 03:46:25;;;;;;;52.93;32.67;;;;;;;3.88;84.56;95289.66;1794430;80;21033;-83
2021/11/26 03:48:52;;;;;;;49.88;32.03;;;;;;;3.82;84.40;95275.71;1798391;80;21359;-83
2021/11/26 03:51:17;;;;;;;54.18;35.15;;;;;;;3.81;84.42;95287.45;1798241;80;21386;-83
2021/11/26 03:53:43;;;;;;;50.52;32.80;;;;;;;3.79;84.69;95272.69;1798279;80;20945;-83
2021/11/26 03:56:09;;;;;;;51.55;32.98;;;;;;;3.79;84.69;95272.69;1798192;80;21045;-83
2021/11/26 03:58:35;;;;;;;54.90;34.67;;;;;;;3.82;84.35;95273.63;1798552;80;20981;-83
2021/11/26 04:01:01;;;;;;;54.95;35.38;;;;;;;3.85;84.31;95277.14;1798252;80;20953;-83
2021/11/26 04:03:26;;;;;;;60.23;35.43;;;;;;;3.87;84.26;95275.20;1798339;80;20989;-83
2021/11/26 04:05:52;;;;;;;60.43;35.05;;;;;;;3.87;84.13;95269.58;1798220;80;20941;-83
2021/11/26 04:08:18;;;;;;;55.63;34.70;;;;;;;3.83;84.18;95262.38;1798221;80;20972;-83
2021/11/26 04:10:44;;;;;;;54.25;32.98;;;;;;;3.83;84.41;95255.95;1798318;80;21343;-83
2021/11/26 04:13:10;;;;;;;51.65;33.30;;;;;;;3.87;84.37;95260.59;1798308;80;20929;-82
2021/11/26 04:15:38;;;;;;;53.65;35.58;;;;;;;3.89;84.26;95257.36;1798249;80;21040;-83
2021/11/26 04:18:05;;;;;;;55.40;34.95;;;;;;;3.91;84.35;95254.66;1798254;80;20980;-83
2021/11/26 04:20:32;;;;;;;54.25;33.60;;;;;;;3.90;84.47;95256.88;1798366;80;21001;-83
2021/11/26 04:22:58;;;;;;;53.13;35.70;;;;;;;3.90;84.55;95256.88;1798368;80;20977;-83
2021/11/26 04:25:24;;;;;;;58.45;34.80;;;;;;;3.89;84.61;95254.80;1798257;80;20992;-83
2021/11/26 04:27:50;;;;;;;55.05;35.35;;;;;;;3.86;84.54;95249.19;1798314;80;20961;-83
2021/11/26 04:30:17;;;;;;;50.33;33.23;;;;;;;3.88;84.62;95243.40;1798160;80;21316;-83
2021/11/26 04:32:43;;;;;;;58.17;36.50;;;;;;;3.89;84.61;95238.58;1798213;80;21388;-83
2021/11/26 04:35:10;;;;;;;52.98;33.90;;;;;;;3.93;84.67;95231.35;1798205;80;21084;-83
2021/11/26 04:37:37;;;;;;;57.73;35.40;;;;;;;3.93;84.75;95236.49;1798238;80;20972;-83
2021/11/26 04:40:05;;;;;;;61.77;37.85;;;;;;;3.91;84.74;95229.75;1798315;80;21087;-83
2021/11/26 04:42:32;;;;;;;55.43;33.60;;;;;;;3.89;84.88;95229.09;1788369;80;21043;-83
2021/11/26 04:44:58;;;;;;;58.78;34.92;;;;;;;3.89;84.97;95230.37;1775743;80;20957;-83
2021/11/26 04:47:23;;;;;;;54.63;33.10;;;;;;;3.91;85.03;95231.04;1798107;80;21004;-83
2021/11/26 04:49:50;;;;;;;55.40;34.83;;;;;;;3.97;85.08;95230.04;1798259;80;20973;-83
2021/11/26 04:52:15;;;;;;;57.95;34.73;;;;;;;3.98;84.95;95219.58;1798192;80;20980;-83
2021/11/26 04:54:41;;;;;;;59.33;34.58;;;;;;;3.97;84.95;95223.13;1798248;80;21328;-83
2021/11/26 04:57:07;;;;;;;57.78;35.38;;;;;;;4.00;85.20;95223.27;1798284;80;20988;-83
2021/11/26 04:59:33;;;;;;;66.95;37.50;;;;;;;4.00;85.37;95215.07;1798161;80;20965;-83
2021/11/26 05:01:59;;;;;;;54.20;32.75;;;;;;;4.00;85.30;95212.98;1773761;80;20929;-83
2021/11/26 05:04:24;;;;;;;51.90;32.48;;;;;;;3.96;85.10;95202.25;1798170;80;20941;-83
2021/11/26 05:06:50;;;;;;;56.33;34.18;;;;;;;3.95;85.26;95199.37;1798125;80;21454;-83
2021/11/26 05:09:16;;;;;;;52.38;32.08;;;;;;;3.96;85.34;95209.16;1798080;80;21094;-83
2021/11/26 05:11:42;;;;;;;55.05;35.43;;;;;;;3.98;85.24;95208.50;1798458;80;21024;-83
2021/11/26 05:14:09;;;;;;;56.20;34.15;;;;;;;3.87;85.09;95210.48;1798144;80;21029;-83
2021/11/26 05:16:35;;;;;;;56.65;36.30;;;;;;;3.81;85.25;95202.66;1798576;80;21088;-83
2021/11/26 05:19:01;;;;;;;57.60;35.33;;;;;;;3.81;85.52;95208.59;1798702;80;20954;-83
2021/11/26 05:21:27;;;;;;;52.65;30.62;;;;;;;3.83;85.55;95210.99;1798877;80;21339;-83
2021/11/26 05:23:54;;;;;;;59.90;37.03;;;;;;;3.85;85.65;95200.05;1798857;80;21031;-83
2021/11/26 05:26:20;;;;;;;59.33;36.58;;;;;;;3.89;85.70;95202.59;1799232;80;21013;-83
2021/11/26 05:28:46;;;;;;;55.88;33.02;;;;;;;3.90;85.64;95193.45;1799378;80;20977;-83
2021/11/26 05:31:12;;;;;;;55.98;34.85;;;;;;;3.90;85.60;95187.03;1799201;80;20950;-83
2021/11/26 05:33:37;;;;;;;55.85;33.48;;;;;;;3.87;85.55;95192.97;1799514;80;21008;-82
2021/11/26 05:36:04;;;;;;;60.25;34.08;;;;;;;3.83;85.72;95186.58;1799821;80;21023;-83
2021/11/26 05:38:29;;;;;;;54.48;31.17;;;;;;;3.84;85.61;95182.55;1800123;80;20955;-83
2021/11/26 05:40:55;;;;;;;51.42;30.45;;;;;;;3.82;85.40;95178.56;1800459;80;21315;-83
2021/11/26 05:43:21;;;;;;;51.70;32.40;;;;;;;3.81;85.34;95182.90;1800237;80;20988;-83
2021/11/26 05:45:47;;;;;;;51.23;32.05;;;;;;;3.81;85.42;95182.09;1800205;80;20949;-83
2021/11/26 05:48:13;;;;;;;52.40;31.62;;;;;;;3.81;85.65;95173.11;1800203;80;20956;-83
2021/11/26 05:50:39;;;;;;;52.27;31.37;;;;;;;3.83;85.89;95171.16;1800144;80;20930;-83
2021/11/26 05:53:05;;;;;;;56.18;33.80;;;;;;;3.81;85.65;95167.97;1800496;80;21035;-82
2021/11/26 05:55:31;;;;;;;54.23;31.27;;;;;;;3.80;85.69;95171.50;1800384;80;21071;-83
2021/11/26 05:57:58;;;;;;;48.02;31.02;;;;;;;3.81;85.69;95172.62;1800639;80;20957;-82
2021/11/26 06:00:25;;;;;;;52.67;31.85;;;;;;;3.82;85.62;95170.84;1800451;80;21043;-83
2021/11/26 06:02:51;;;;;;;52.25;31.82;;;;;;;3.80;85.65;95165.88;1800577;80;21002;-83
2021/11/26 06:05:17;;;;;;;47.38;30.68;;;;;;;3.81;85.88;95162.34;1800451;80;20929;-83
2021/11/26 06:07:43;;;;;;;53.35;31.30;;;;;;;3.82;85.88;95157.52;1800645;80;20984;-83
2021/11/26 06:10:11;;;;;;;49.80;29.55;;;;;;;3.80;85.90;95162.03;1800394;80;21395;-83
2021/11/26 06:12:42;;;;;;;46.85;28.47;;;;;;;3.80;85.89;95162.03;1800568;80;21324;-83
2021/11/26 06:15:09;;;;;;;45.67;27.60;;;;;;;3.85;85.91;95161.52;1800135;80;21009;-83
2021/11/26 06:17:35;;;;;;;43.38;26.45;;;;;;;3.85;85.89;95159.74;1800529;80;20953;-83
2021/11/26 06:20:01;;;;;;;44.25;26.97;;;;;;;3.92;86.12;95156.02;1800231;80;20965;-83
2021/11/26 06:22:27;;;;;;;39.88;25.43;;;;;;;3.93;85.90;95155.05;1800387;80;20953;-83
2021/11/26 06:24:53;;;;;;;41.48;25.30;;;;;;;3.91;85.98;95160.84;1800395;80;20949;-83
2021/11/26 06:27:19;;;;;;;43.52;26.42;;;;;;;3.93;86.13;95165.81;1800094;80;21001;-83
2021/11/26 06:29:45;;;;;;;45.48;27.50;;;;;;;3.94;86.08;95162.28;1800398;80;20937;-83
2021/11/26 06:32:11;;;;;;;39.78;24.07;;;;;;;3.95;85.87;95172.38;1800338;80;20975;-83
2021/11/26 06:34:37;;;;;;;39.33;25.15;;;;;;;3.99;85.95;95167.70;1798990;80;21367;-83
2021/11/26 06:37:03;;;;;;;39.35;25.35;;;;;;;4.00;85.78;95166.72;1797487;80;20989;-83
2021/11/26 06:39:29;;;;;;;45.78;28.35;;;;;;;3.99;85.94;95169.78;1797430;80;21024;-83
2021/11/26 06:41:54;;;;;;;47.03;29.23;;;;;;;3.97;85.90;95170.44;1797648;80;21048;-83
2021/11/26 06:44:20;;;;;;;50.43;32.17;;;;;;;3.95;85.92;95167.73;1797522;80;20933;-83
2021/11/26 06:46:46;;;;;;;45.98;30.30;;;;;;;3.95;85.81;95169.02;1797588;80;21037;-83
2021/11/26 06:49:12;;;;;;;40.67;28.27;;;;;;;3.98;85.78;95169.95;1797416;80;20984;-83
2021/11/26 06:51:39;;;;;;;46.48;30.23;;;;;;;3.94;85.77;95168.22;1797336;80;21379;-83
2021/11/26 06:54:04;;;;;;;43.85;29.48;;;;;;;3.95;85.80;95169.81;1797537;80;21012;-83
2021/11/26 06:56:30;;;;;;;51.13;30.20;;;;;;;3.97;85.96;95176.06;1797445;80;21069;-83
2021/11/26 06:58:59;;;;;;;67.10;35.38;;;;;;;3.93;85.97;95166.62;1797430;80;20918;-83
2021/11/26 07:01:25;;;;;;;59.98;31.95;;;;;;;3.91;86.02;95153.14;1797290;80;20981;-83
2021/11/26 07:03:51;;;;;;;59.77;33.70;;;;;;;3.88;86.01;95147.83;1797431;80;20983;-83
2021/11/26 07:06:16;;;;;;;61.35;35.00;;;;;;;3.91;86.10;95139.00;1797411;80;20966;-83
2021/11/26 07:08:42;;;;;;;65.60;39.80;;;;;;;3.91;86.10;95139.00;1797342;80;21013;-83
2021/11/26 07:11:08;;;;;;;60.73;38.80;;;;;;;3.96;86.03;95133.34;1797214;80;21410;-83
2021/11/26 07:13:34;;;;;;;57.73;35.92;;;;;;;3.96;86.03;95130.29;1797221;80;21013;-83
2021/11/26 07:16:00;;;;;;;53.05;33.25;;;;;;;3.96;86.13;95134.14;1797154;80;21026;-83
2021/11/26 07:18:25;;;;;;;52.55;33.50;;;;;;;3.93;86.10;95128.06;1797265;80;21009;-83
2021/11/26 07:20:51;;;;;;;56.65;34.80;;;;;;;3.90;86.04;95125.81;1797374;80;20922;-83
2021/11/26 07:23:17;;;;;;;50.63;32.65;;;;;;;3.93;86.03;95118.27;1797284;80;21057;-83
2021/11/26 07:25:43;;;;;;;48.25;29.92;;;;;;;3.94;86.08;95116.81;1797231;80;20988;-82
2021/11/26 07:28:08;;;;;;;54.77;33.63;;;;;;;4.01;86.35;95102.30;1797282;80;21041;-83
2021/11/26 07:30:34;;;;;;;50.83;32.40;;;;;;;3.90;86.32;95098.38;1797318;80;20985;-82
2021/11/26 07:33:00;;;;;;;61.33;35.40;;;;;;;3.90;86.32;95098.38;1797057;80;21041;-83
2021/11/26 07:35:26;;;;;;;51.65;33.50;;;;;;;3.90;86.30;95096.27;1772932;80;20967;-82
2021/11/26 07:37:52;;;;;;;48.58;30.90;;;;;;;3.90;86.37;95103.97;1718005;84;20983;-82
2021/11/26 07:40:18;;;;;;;49.13;29.85;;;;;;;3.89;86.44;95095.95;1747290;82;21025;-83
2021/11/26 07:42:44;;;;;;;47.27;30.27;;;;;;;3.90;86.49;95093.23;1712208;83;21314;-83
2021/11/26 07:45:10;;;;;;;42.75;27.37;;;;;;;3.95;86.70;95077.30;1737146;83;20971;-83
2021/11/26 07:47:37;;;;;;;41.65;26.33;;;;;;;3.97;86.59;95068.92;1737011;83;20994;-82
2021/11/26 07:50:04;;;;;;;42.45;26.50;;;;;;;3.97;86.64;95068.13;1736795;83;21060;-83
2021/11/26 07:52:31;;;;;;;49.60;33.45;;;;;;;3.96;86.78;95071.67;1737158;83;21004;-82
2021/11/26 07:54:58;;;;;;;47.88;32.65;;;;;;;3.92;86.80;95067.36;1737169;83;21026;-82
2021/11/26 07:57:23;;;;;;;51.85;32.23;;;;;;;3.95;86.92;95063.16;1737300;83;21461;-82
2021/11/26 07:59:49;;;;;;;49.40;32.17;;;;;;;3.98;86.89;95061.52;1737112;83;21018;-82
2021/11/26 08:02:15;;;;;;;53.60;33.13;;;;;;;3.98;86.80;95064.09;1737232;83;21394;-83
2021/11/26 08:04:41;;;;;;;51.98;32.58;;;;;;;4.00;87.01;95064.72;1723156;83;20942;-82
2021/11/26 08:07:07;;;;;;;53.52;33.85;;;;;;;3.99;87.03;95071.31;1702227;84;21021;-82
2021/11/26 08:09:33;;;;;;;64.00;39.83;;;;;;;3.95;86.99;95063.16;1714826;84;21016;-83
2021/11/26 08:11:59;;;;;;;65.65;41.15;;;;;;;3.89;86.89;95060.77;1714626;84;20996;-83
2021/11/26 08:14:25;;;;;;;63.38;40.23;;;;;;;3.86;86.73;95060.33;1714178;84;21072;-83
2021/11/26 08:16:53;;;;;;;63.00;41.65;;;;;;;3.82;86.92;95048.80;1714058;84;21016;-82
2021/11/26 08:19:19;;;;;;;64.75;40.83;;;;;;;3.81;86.94;95042.06;1714025;83;21304;-83
2021/11/26 08:21:45;;;;;;;71.12;46.55;;;;;;;3.79;87.10;95035.02;1714016;84;21088;-83
2021/11/26 08:24:11;;;;;;;68.65;44.48;;;;;;;3.81;87.58;95033.08;1714170;84;21105;-82
2021/11/26 08:26:40;;;;;;;69.17;46.37;;;;;;;3.88;87.76;95038.63;1711407;84;20989;-83
2021/11/26 08:29:06;;;;;;;72.00;45.25;;;;;;;3.90;87.48;95039.27;1749850;81;20975;-82
2021/11/26 08:31:32;;;;;;;68.87;44.70;;;;;;;3.91;87.36;95040.87;1746869;82;21031;-83
2021/11/26 08:33:59;;;;;;;66.00;45.50;;;;;;;3.92;87.26;95039.09;1777869;80;21059;-83
2021/11/26 08:36:25;;;;;;;67.62;45.95;;;;;;;3.94;87.37;95038.92;1743067;81;21018;-82
2021/11/26 08:38:52;;;;;;;64.90;43.48;;;;;;;3.97;87.42;95025.72;1739071;83;21017;-82
2021/11/26 08:41:18;;;;;;;61.68;40.35;;;;;;;3.97;87.45;95023.95;1769429;81;21071;-83
2021/11/26 08:43:44;;;;;;;55.78;39.08;;;;;;;3.94;87.48;95016.59;1769262;81;20987;-82
2021/11/26 08:46:09;;;;;;;56.98;38.20;;;;;;;3.97;87.42;95017.52;1739212;83;20964;-82
2021/11/26 08:48:35;;;;;;;54.75;35.55;;;;;;;3.99;87.44;95015.57;1769539;81;20980;-82
2021/11/26 08:51:01;;;;;;;60.33;38.10;;;;;;;4.07;87.69;95009.09;1769018;81;21003;-82
2021/11/26 08:53:30;;;;;;;60.23;36.98;;;;;;;4.13;87.90;95012.72;1724240;83;21014;-82
2021/11/26 08:55:55;;;;;;;58.05;37.58;;;;;;;4.20;87.78;95004.61;1769437;81;21031;-82
2021/11/26 08:58:21;;;;;;;57.65;36.23;;;;;;;4.26;87.81;94998.78;1769224;81;20944;-82
2021/11/26 09:00:47;;;;;;;53.60;34.65;;;;;;;4.09;87.66;94962.64;1739117;83;20991;-82
2021/11/26 09:03:13;;;;;;;52.93;36.53;;;;;;;4.31;87.13;94992.61;1769362;81;20916;-82
2021/11/26 09:05:39;;;;;;;53.05;36.68;;;;;;;4.33;86.76;94996.28;1769286;81;21023;-83
2021/11/26 09:08:05;;;;;;;48.35;33.30;;;;;;;4.31;86.61;94990.53;1738944;83;21011;-82
2021/11/26 09:10:35;;;;;;;51.48;33.78;;;;;;;4.25;86.54;94997.67;1769331;81;21137;-82
2021/11/26 09:13:02;;;;;;;51.85;35.68;;;;;;;4.20;87.01;94991.75;1769192;81;21048;-82
2021/11/26 09:15:28;;;;;;;50.88;33.15;;;;;;;4.25;87.46;94985.61;1739290;83;20999;-82
2021/11/26 09:17:54;;;;;;;49.38;33.88;;;;;;;4.29;87.37;94974.48;1769983;81;20960;-82
2021/11/26 09:20:20;;;;;;;48.28;33.80;;;;;;;4.35;87.22;94967.34;1769733;81;20961;-83
2021/11/26 09:22:46;;;;;;;45.05;30.35;;;;;;;4.38;87.02;94965.69;1739470;82;20966;-83
2021/11/26 09:25:12;;;;;;;46.37;30.43;;;;;;;4.39;86.92;94950.56;1769937;81;20964;-82
2021/11/26 09:27:38;;;;;;;46.30;31.27;;;;;;;4.32;86.56;94945.34;1769449;81;20999;-83
2021/11/26 09:30:06;;;;;;;46.00;32.33;;;;;;;4.24;86.69;94940.80;1739151;82;21060;-83
2021/11/26 09:32:31;;;;;;;50.38;33.48;;;;;;;4.17;86.77;94934.27;1769960;81;21052;-82
2021/11/26 09:34:58;;;;;;;52.35;34.58;;;;;;;4.11;86.97;94938.35;1769336;81;20995;-83
2021/11/26 09:37:24;;;;;;;45.25;31.05;;;;;;;4.11;86.96;94925.98;1739397;82;21074;-83
2021/11/26 09:39:50;;;;;;;47.35;32.28;;;;;;;4.13;87.17;94928.69;1769837;81;21576;-83
2021/11/26 09:42:15;;;;;;;47.53;32.65;;;;;;;4.20;87.22;94926.19;1769771;81;20952;-83
2021/11/26 09:44:44;;;;;;;47.27;31.27;;;;;;;4.25;87.22;94929.54;1724948;83;20968;-83
2021/11/26 09:47:09;;;;;;;51.37;33.33;;;;;;;4.26;87.05;94925.50;1769908;81;20972;-82
2021/11/26 09:49:35;;;;;;;49.98;33.13;;;;;;;4.28;87.20;94921.46;1769601;81;21008;-83
2021/11/26 09:52:00;;;;;;;48.52;33.13;;;;;;;4.30;87.06;94904.88;1739714;83;21564;-83
2021/11/26 09:54:26;;;;;;;50.67;32.90;;;;;;;4.27;87.12;94906.52;1770078;80;20992;-83
2021/11/26 09:56:52;;;;;;;52.67;35.25;;;;;;;4.28;87.15;94904.75;1769713;81;21062;-83
2021/11/26 09:59:19;;;;;;;51.75;35.95;;;;;;;4.33;87.36;94905.00;1728858;81;20984;-83
2021/11/26 10:01:45;;;;;;;59.25;39.38;;;;;;;4.38;87.23;94907.83;1737879;83;21007;-83
2021/11/26 10:04:18;;;;;;;70.72;45.10;;;;;;;4.39;87.12;94892.70;1738024;83;21017;-83
2021/11/26 10:06:45;;;;;;;62.70;42.80;;;;;;;4.34;86.88;94885.53;1738105;83;21430;-83
2021/11/26 10:09:23;;;;;;;65.28;43.17;;;;;;;4.32;87.18;94882.84;1738185;83;22043;-83
2021/11/26 10:11:55;;;;;;;57.45;39.00;;;;;;;4.30;87.16;94869.37;1738072;83;21003;-83
2021/11/26 10:14:29;;;;;;;54.50;37.08;;;;;;;4.30;87.31;94855.23;1738289;83;20979;-83
2021/11/26 10:17:13;;;;;;;63.05;41.50;;;;;;;4.33;87.22;94849.72;1738304;83;21030;-83
2021/11/26 10:19:50;;;;;;;56.45;40.00;;;;;;;4.38;87.11;94851.25;1738183;83;21003;-82
2021/11/26 10:22:38;;;;;;;75.75;50.50;;;;;;;4.38;87.15;94849.97;1737997;83;21015;-83
2021/11/26 10:25:13;;;;;;;75.50;47.95;;;;;;;4.31;87.01;94847.33;1738067;83;21063;-83
2021/11/26 10:27:56;;;;;;;81.25;51.53;;;;;;;4.22;87.07;94832.48;1737763;83;21023;-83
2021/11/26 10:30:29;;;;;;;79.27;51.28;;;;;;;4.12;87.25;94827.33;1737977;83;21055;-83
2021/11/26 10:33:06;;;;;;;78.15;47.73;;;;;;;4.06;87.34;94827.54;1738138;83;20971;-83
2021/11/26 10:35:41;;;;;;;80.28;52.43;;;;;;;4.05;87.30;94829.01;1751038;81;20998;-82
2021/11/26 10:38:14;;;;;;;87.02;54.98;;;;;;;4.00;87.42;94824.41;1769760;81;21018;-82
2021/11/26 10:40:49;;;;;;;89.62;56.33;;;;;;;4.01;87.67;94813.16;1769183;81;21065;-82
2021/11/26 10:43:33;;;;;;;79.47;51.23;;;;;;;4.03;87.91;94816.34;1769298;81;21053;-82
2021/11/26 10:46:15;;;;;;;78.42;51.42;;;;;;;4.02;87.75;94800.61;1795928;80;20979;-83
2021/11/26 10:48:55;;;;;;;83.78;52.83;;;;;;;3.93;87.54;94800.91;1792587;80;21026;-83
2021/11/26 10:51:35;;;;;;;83.15;55.25;;;;;;;3.93;87.77;94790.14;1795894;80;20983;-83
2021/11/26 10:57:22;;;;;;;74.92;49.20;;;;;;;3.94;87.92;94787.08;1773319;80;21066;-82
2021/11/26 10:59:26;;;;;;;76.50;50.33;;;;;;;3.93;88.08;94784.20;1792405;80;21106;-82
2021/11/26 11:01:52;;;;;;;70.37;44.67;;;;;;;3.94;88.25;94769.89;1797579;80;20983;-82
2021/11/26 11:04:20;;;;;;;68.67;46.75;;;;;;;3.90;87.91;94758.35;1797589;80;20991;-82
2021/11/26 11:07:07;;;;;;;66.47;42.62;;;;;;;3.88;87.97;94752.60;1797625;80;21070;-83
2021/11/26 11:09:46;;;;;;;64.45;43.63;;;;;;;3.88;87.96;94750.03;1797440;80;21024;-82
2021/11/26 11:12:13;;;;;;;64.12;42.62;;;;;;;3.91;88.08;94753.06;1797561;80;21023;-83
2021/11/26 11:14:39;;;;;;;62.38;44.60;;;;;;;3.89;87.93;94747.28;1797432;80;20943;-82
2021/11/26 11:17:05;;;;;;;65.37;43.33;;;;;;;3.82;87.89;94741.28;1797337;80;20998;-82
2021/11/26 11:19:31;;;;;;;63.38;41.90;;;;;;;3.82;88.07;94735.34;1797485;80;20999;-82
2021/11/26 11:21:58;;;;;;;58.42;37.08;;;;;;;3.83;88.08;94731.31;1797468;80;21011;-82
2021/11/26 11:24:24;;;;;;;70.20;42.75;;;;;;;3.81;88.05;94720.42;1797493;80;20951;-82
2021/11/26 11:26:50;;;;;;;60.98;41.95;;;;;;;3.79;87.99;94719.81;1797602;80;21007;-82
2021/11/26 11:29:20;;;;;;;59.03;38.95;;;;;;;3.81;88.05;94718.34;1797308;80;20999;-82